Time;durP1;ratioP1;P1;durP2;ratioP2;P2;SDS_P1;SDS_P2;PMS_P1;PMS_P2;Temp;Humidity;BMP_temperature;BMP_pressure;BME280_temperature;BME280_humidity;BME280_pressure;Samples;Min_cycle;Max_cycle;Signal;HPM_P1;HPM_P2
2023/01/13 00:02:10;;;;;;;1.80;0.83;;;;;;;;;;5097531;28;20441;-79
2023/01/13 00:04:38;;;;;;;0.80;0.80;;;;;;;;;;5084448;28;20510;-80
2023/01/13 00:07:04;;;;;;;0.60;0.60;;;;;;;;;;5096138;28;20583;-79
2023/01/13 00:09:39;;;;;;;0.50;0.43;;;;;;;;;;5091246;28;20454;-80
2023/01/13 00:12:18;;;;;;;0.63;0.63;;;;;;;;;;5086919;28;20639;-80
2023/01/13 00:14:46;;;;;;;1.60;0.87;;;;;;;;;;5082644;28;20473;-80
2023/01/13 00:17:12;;;;;;;0.63;0.63;;;;;;;;;;5078490;28;20437;-79
2023/01/13 00:19:38;;;;;;;0.80;0.80;;;;;;;;;;5093169;28;20516;-79
2023/01/13 00:22:05;;;;;;;0.47;0.40;;;;;;;;;;5080880;28;20830;-80
2023/01/13 00:24:31;;;;;;;2.00;0.40;;;;;;;;;;5090994;28;20998;-79
2023/01/13 00:26:57;;;;;;;0.50;0.50;;;;;;;;;;5089855;28;20519;-79
2023/01/13 00:29:23;;;;;;;0.63;0.50;;;;;;;;;;5090335;28;20807;-78
2023/01/13 00:31:51;;;;;;;0.90;0.90;;;;;;;;;;5103857;28;20418;-79
2023/01/13 00:34:17;;;;;;;1.10;1.10;;;;;;;;;;5087874;28;20519;-78
2023/01/13 00:36:43;;;;;;;0.60;0.50;;;;;;;;;;5090858;28;20523;-78
2023/01/13 00:39:09;;;;;;;2.70;0.87;;;;;;;;;;5090252;28;20859;-80
2023/01/13 00:44:20;;;;;;;1.37;0.77;;;;;;;;;;5082619;28;20498;-78
2023/01/13 00:46:46;;;;;;;0.63;0.60;;;;;;;;;;5092336;28;20973;-78
2023/01/13 00:49:12;;;;;;;0.70;0.70;;;;;;;;;;5094897;28;20464;-78
2023/01/13 00:51:38;;;;;;;0.30;0.30;;;;;;;;;;5073270;28;20541;-77
2023/01/13 00:54:04;;;;;;;1.13;0.57;;;;;;;;;;5100237;28;20442;-78
2023/01/13 00:56:33;;;;;;;1.03;0.60;;;;;;;;;;5088458;28;20437;-77
2023/01/13 00:59:00;;;;;;;0.70;0.70;;;;;;;;;;5079915;28;20486;-77
2023/01/13 01:01:26;;;;;;;0.80;0.70;;;;;;;;;;5084863;28;20420;-78
2023/01/13 01:03:53;;;;;;;1.30;0.80;;;;;;;;;;5089176;28;20685;-78
2023/01/13 01:06:20;;;;;;;1.80;0.80;;;;;;;;;;5068868;28;20461;-77
2023/01/13 01:08:46;;;;;;;0.60;0.60;;;;;;;;;;5083826;28;20455;-77
2023/01/13 01:11:14;;;;;;;1.00;1.00;;;;;;;;;;5079086;28;20511;-78
2023/01/13 01:13:40;;;;;;;4.93;1.10;;;;;;;;;;5072426;28;20799;-78
2023/01/13 01:16:08;;;;;;;1.03;0.90;;;;;;;;;;5076466;28;20661;-78
2023/01/13 01:18:34;;;;;;;5.63;1.20;;;;;;;;;;5087663;28;20463;-78
2023/01/13 01:21:00;;;;;;;2.60;0.73;;;;;;;;;;5075110;28;20454;-78
2023/01/13 01:23:30;;;;;;;5.20;1.10;;;;;;;;;;5077012;28;20468;-78
2023/01/13 01:26:02;;;;;;;2.73;1.10;;;;;;;;;;5082297;28;20449;-77
2023/01/13 01:28:28;;;;;;;2.60;2.50;;;;;;;;;;5095043;28;20522;-77
2023/01/13 01:30:54;;;;;;;1.57;1.07;;;;;;;;;;5079362;28;20991;-77
2023/01/13 01:33:21;;;;;;;2.77;0.80;;;;;;;;;;5087212;28;20534;-78
2023/01/13 01:35:47;;;;;;;0.80;0.80;;;;;;;;;;5074877;28;20408;-77
2023/01/13 01:38:13;;;;;;;4.03;1.40;;;;;;;;;;5086841;28;20435;-78
2023/01/13 01:40:39;;;;;;;2.33;1.20;;;;;;;;;;5074212;28;20423;-77
2023/01/13 01:45:57;;;;;;;3.73;1.67;;;;;;;;;;5083755;28;20427;-78
2023/01/13 01:48:23;;;;;;;3.90;1.00;;;;;;;;;;5098669;28;20423;-78
2023/01/13 01:50:51;;;;;;;9.63;3.33;;;;;;;;;;5094291;28;20464;-76
2023/01/13 01:53:18;;;;;;;2.20;0.90;;;;;;;;;;5096911;28;20527;-77
2023/01/13 01:55:44;;;;;;;5.40;1.40;;;;;;;;;;5074888;28;20908;-77
2023/01/13 01:58:16;;;;;;;4.93;1.60;;;;;;;;;;5076341;28;20436;-78
2023/01/13 02:00:42;;;;;;;5.80;0.97;;;;;;;;;;5081225;28;20419;-77
2023/01/13 02:03:09;;;;;;;3.07;1.23;;;;;;;;;;5069530;28;20424;-76
2023/01/13 02:05:35;;;;;;;4.17;1.30;;;;;;;;;;5074850;28;20470;-79
2023/01/13 02:08:02;;;;;;;2.27;1.60;;;;;;;;;;5079101;28;20950;-77
2023/01/13 02:10:29;;;;;;;4.07;0.63;;;;;;;;;;5068259;28;20942;-77
2023/01/13 02:12:56;;;;;;;3.17;1.40;;;;;;;;;;5095859;28;20550;-77
2023/01/13 02:15:26;;;;;;;1.57;1.10;;;;;;;;;;5082568;28;20831;-77
2023/01/13 02:17:58;;;;;;;1.57;1.47;;;;;;;;;;5087102;28;20466;-77
2023/01/13 02:20:40;;;;;;;1.13;1.07;;;;;;;;;;5082127;28;21172;-77
2023/01/13 02:26:15;;;;;;;4.37;1.40;;;;;;;;;;5073414;28;20400;-77
2023/01/13 02:31:48;;;;;;;3.33;1.10;;;;;;;;;;5076146;28;20391;-77
2023/01/13 02:34:25;;;;;;;7.03;1.70;;;;;;;;;;5088948;28;20450;-76
2023/01/13 02:36:57;;;;;;;2.10;1.33;;;;;;;;;;5084495;28;20817;-77
2023/01/13 02:39:32;;;;;;;1.07;0.90;;;;;;;;;;5085933;28;20472;-78
2023/01/13 02:44:58;;;;;;;7.63;1.53;;;;;;;;;;5084073;28;20423;-77
2023/01/13 02:47:25;;;;;;;8.07;1.30;;;;;;;;;;5082716;28;20526;-76
2023/01/13 02:49:54;;;;;;;1.90;1.00;;;;;;;;;;5090794;28;20486;-77
2023/01/13 02:52:23;;;;;;;4.53;0.80;;;;;;;;;;5091660;28;20428;-78
2023/01/13 02:54:52;;;;;;;1.00;0.90;;;;;;;;;;5097091;28;20447;-77
2023/01/13 02:57:23;;;;;;;1.23;1.07;;;;;;;;;;5083761;28;20425;-77
2023/01/13 02:59:49;;;;;;;1.80;0.80;;;;;;;;;;5086171;28;20618;-76
2023/01/13 03:02:17;;;;;;;2.30;1.90;;;;;;;;;;5107857;28;20829;-76
2023/01/13 03:04:43;;;;;;;4.90;0.80;;;;;;;;;;5100943;28;20443;-77
2023/01/13 03:07:13;;;;;;;5.53;1.03;;;;;;;;;;5088265;28;20428;-76
2023/01/13 03:09:41;;;;;;;2.30;0.87;;;;;;;;;;5098142;28;20994;-76
2023/01/13 03:12:15;;;;;;;2.03;1.30;;;;;;;;;;5087276;28;20435;-76
2023/01/13 03:14:51;;;;;;;2.97;0.50;;;;;;;;;;5097743;28;20466;-76
2023/01/13 03:17:24;;;;;;;4.10;1.20;;;;;;;;;;5068194;28;20409;-76
2023/01/13 03:19:50;;;;;;;1.07;0.63;;;;;;;;;;5104073;28;20458;-77
2023/01/13 03:22:16;;;;;;;4.37;0.93;;;;;;;;;;5088658;28;20910;-77
2023/01/13 03:24:43;;;;;;;9.23;1.23;;;;;;;;;;5095374;28;20964;-76
2023/01/13 03:27:13;;;;;;;3.07;1.80;;;;;;;;;;5082638;28;20463;-77
2023/01/13 03:29:42;;;;;;;7.07;1.20;;;;;;;;;;5095710;28;20447;-77
2023/01/13 03:32:21;;;;;;;1.20;1.13;;;;;;;;;;5093963;28;20501;-77
2023/01/13 03:34:52;;;;;;;3.60;0.83;;;;;;;;;;5094645;28;20811;-77
2023/01/13 03:37:20;;;;;;;1.50;0.93;;;;;;;;;;5078459;28;20729;-76
2023/01/13 03:39:49;;;;;;;7.55;1.48;;;;;;;;;;5086083;28;20471;-77
2023/01/13 03:42:19;;;;;;;0.80;0.80;;;;;;;;;;5098048;28;20182;-76
2023/01/13 03:44:50;;;;;;;1.50;1.00;;;;;;;;;;5086850;28;20435;-76
2023/01/13 03:47:20;;;;;;;0.87;0.87;;;;;;;;;;5077874;28;20435;-77
2023/01/13 03:49:52;;;;;;;2.63;1.10;;;;;;;;;;5091833;28;20512;-76
2023/01/13 03:52:22;;;;;;;1.73;0.50;;;;;;;;;;5090767;28;20463;-76
2023/01/13 03:54:51;;;;;;;1.97;1.20;;;;;;;;;;5087266;28;20439;-77
2023/01/13 03:57:19;;;;;;;1.40;1.10;;;;;;;;;;5097605;28;20790;-76
2023/01/13 03:59:48;;;;;;;3.40;1.37;;;;;;;;;;5098918;28;20471;-76
2023/01/13 04:02:33;;;;;;;1.60;0.90;;;;;;;;;;5086791;28;20436;-77
2023/01/13 04:05:03;;;;;;;3.40;1.07;;;;;;;;;;5105857;27;20546;-77
2023/01/13 04:07:35;;;;;;;1.80;1.30;;;;;;;;;;5084028;28;20450;-77
2023/01/13 04:10:04;;;;;;;3.40;0.87;;;;;;;;;;5086968;28;20950;-76
2023/01/13 04:12:59;;;;;;;1.33;1.10;;;;;;;;;;5100537;28;20495;-76
2023/01/13 04:15:26;;;;;;;4.33;1.30;;;;;;;;;;5087813;28;20483;-76
2023/01/13 04:17:53;;;;;;;0.83;0.73;;;;;;;;;;5079410;28;20430;-77
2023/01/13 04:20:19;;;;;;;9.20;1.87;;;;;;;;;;5089613;28;20491;-76
2023/01/13 04:22:45;;;;;;;2.00;0.80;;;;;;;;;;5083643;28;21213;-77
2023/01/13 04:25:11;;;;;;;1.33;1.10;;;;;;;;;;5096856;28;20428;-77
2023/01/13 04:27:37;;;;;;;4.87;1.83;;;;;;;;;;5094157;28;20986;-75
2023/01/13 04:30:04;;;;;;;1.90;1.20;;;;;;;;;;5071171;28;20786;-76
2023/01/13 04:32:30;;;;;;;10.27;1.83;;;;;;;;;;5082805;28;20443;-77
2023/01/13 04:34:56;;;;;;;3.30;1.07;;;;;;;;;;5091879;28;20451;-76
2023/01/13 04:37:21;;;;;;;5.07;1.53;;;;;;;;;;5089744;28;20494;-77
2023/01/13 04:39:47;;;;;;;1.90;1.00;;;;;;;;;;5093928;28;20497;-77
2023/01/13 04:42:13;;;;;;;4.03;1.00;;;;;;;;;;5093931;28;20477;-76
2023/01/13 04:44:39;;;;;;;3.77;1.57;;;;;;;;;;5097603;28;20521;-77
2023/01/13 04:47:05;;;;;;;7.00;1.33;;;;;;;;;;5074412;28;20565;-77
2023/01/13 04:49:32;;;;;;;4.63;1.80;;;;;;;;;;5091864;28;20443;-78
2023/01/13 04:51:58;;;;;;;6.00;1.23;;;;;;;;;;5080774;28;20869;-77
2023/01/13 04:54:24;;;;;;;2.47;1.50;;;;;;;;;;5079158;28;20534;-77
2023/01/13 04:56:50;;;;;;;4.33;1.20;;;;;;;;;;5072007;28;20521;-77
2023/01/13 04:59:16;;;;;;;3.97;1.90;;;;;;;;;;5093443;28;20983;-78
2023/01/13 05:01:42;;;;;;;3.97;1.43;;;;;;;;;;5072750;28;20421;-77
2023/01/13 05:04:08;;;;;;;8.03;1.93;;;;;;;;;;5088925;28;20435;-77
2023/01/13 05:06:34;;;;;;;1.90;0.67;;;;;;;;;;5084638;28;20434;-77
2023/01/13 05:09:00;;;;;;;2.90;1.67;;;;;;;;;;5097854;28;20439;-78
2023/01/13 05:17:02;;;;;;;3.67;1.50;;;;;;;;;;5078661;28;20696;-79
2023/01/13 05:19:35;;;;;;;4.37;2.33;;;;;;;;;;5075437;28;20554;-79
2023/01/13 05:27:31;;;;;;;5.10;2.00;;;;;;;;;;5079201;28;20458;-77
2023/01/13 05:29:57;;;;;;;3.50;1.90;;;;;;;;;;5085473;28;20472;-77
2023/01/13 05:32:24;;;;;;;1.47;1.20;;;;;;;;;;5075767;28;20778;-76
2023/01/13 05:34:50;;;;;;;2.10;1.40;;;;;;;;;;5083315;28;20848;-77
2023/01/13 05:37:16;;;;;;;1.47;0.80;;;;;;;;;;5084194;28;20506;-76
2023/01/13 05:45:12;;;;;;;4.83;1.10;;;;;;;;;;5075693;28;20456;-77
2023/01/13 05:47:38;;;;;;;3.00;1.10;;;;;;;;;;5076487;28;20516;-77
2023/01/13 05:50:04;;;;;;;3.17;1.63;;;;;;;;;;5066487;28;20909;-78
2023/01/13 05:52:31;;;;;;;3.70;1.43;;;;;;;;;;5071846;28;20450;-76
2023/01/13 05:54:56;;;;;;;6.90;1.47;;;;;;;;;;5084386;28;20764;-77
2023/01/13 05:57:26;;;;;;;4.30;2.43;;;;;;;;;;5081734;28;20419;-81
2023/01/13 05:59:52;;;;;;;12.97;1.43;;;;;;;;;;5096877;28;20456;-76
2023/01/13 06:02:18;;;;;;;8.67;1.43;;;;;;;;;;5084440;28;20423;-76
2023/01/13 06:04:44;;;;;;;5.10;1.90;;;;;;;;;;5085204;28;20794;-76
2023/01/13 06:07:11;;;;;;;0.97;0.93;;;;;;;;;;5087963;28;20431;-77
2023/01/13 06:09:37;;;;;;;5.40;2.00;;;;;;;;;;5081530;28;20407;-78
2023/01/13 06:12:03;;;;;;;9.77;1.93;;;;;;;;;;5077808;28;20605;-76
2023/01/13 06:14:38;;;;;;;3.20;1.47;;;;;;;;;;5090456;28;20721;-76
2023/01/13 06:17:07;;;;;;;8.23;1.33;;;;;;;;;;5084104;28;20411;-76
2023/01/13 06:19:33;;;;;;;2.73;1.73;;;;;;;;;;5091648;28;20470;-77
2023/01/13 06:22:23;;;;;;;1.33;0.70;;;;;;;;;;5093480;28;20443;-77
2023/01/13 06:24:49;;;;;;;9.70;2.20;;;;;;;;;;5079512;28;20432;-75
2023/01/13 06:27:16;;;;;;;5.43;2.53;;;;;;;;;;5076534;28;20509;-77
2023/01/13 06:29:42;;;;;;;3.67;1.30;;;;;;;;;;5094010;28;20786;-77
2023/01/13 06:32:11;;;;;;;4.20;1.33;;;;;;;;;;5084763;28;20446;-77
2023/01/13 06:34:38;;;;;;;2.57;1.47;;;;;;;;;;5099265;27;20439;-77
2023/01/13 06:37:04;;;;;;;2.83;1.60;;;;;;;;;;5090519;28;20440;-77
2023/01/13 06:39:31;;;;;;;2.10;0.90;;;;;;;;;;5085419;28;20669;-76
2023/01/13 06:44:42;;;;;;;8.67;1.43;;;;;;;;;;5082979;28;20422;-75
2023/01/13 06:47:08;;;;;;;3.57;1.40;;;;;;;;;;5083468;28;20445;-76
2023/01/13 06:49:34;;;;;;;3.43;1.70;;;;;;;;;;5099608;27;20428;-77
2023/01/13 06:52:00;;;;;;;2.73;1.27;;;;;;;;;;5080629;28;20561;-75
2023/01/13 06:54:26;;;;;;;2.10;1.13;;;;;;;;;;5085095;28;20957;-78
2023/01/13 06:56:52;;;;;;;1.30;1.03;;;;;;;;;;5086524;28;20435;-77
2023/01/13 06:59:21;;;;;;;5.60;1.50;;;;;;;;;;5086129;28;20498;-79
2023/01/13 07:01:47;;;;;;;1.27;1.17;;;;;;;;;;5092729;28;20493;-80
2023/01/13 07:04:13;;;;;;;1.20;1.00;;;;;;;;;;5086126;28;20431;-78
2023/01/13 07:06:39;;;;;;;4.90;1.80;;;;;;;;;;5079553;28;20436;-79
2023/01/13 07:09:05;;;;;;;3.97;1.50;;;;;;;;;;5084976;28;20806;-78
2023/01/13 07:11:31;;;;;;;6.83;1.70;;;;;;;;;;5096464;28;21108;-77
2023/01/13 07:16:48;;;;;;;5.67;1.90;;;;;;;;;;5075929;28;20800;-79
2023/01/13 07:19:21;;;;;;;3.13;1.40;;;;;;;;;;5083832;28;20468;-77
2023/01/13 07:21:48;;;;;;;2.90;1.60;;;;;;;;;;5079003;28;20444;-79
2023/01/13 07:24:13;;;;;;;1.60;1.10;;;;;;;;;;5072902;28;20448;-79
2023/01/13 07:26:42;;;;;;;2.00;1.80;;;;;;;;;;5082812;28;20534;-78
2023/01/13 07:29:09;;;;;;;3.67;1.20;;;;;;;;;;5087397;28;20667;-78
2023/01/13 07:31:38;;;;;;;3.40;2.03;;;;;;;;;;5089567;28;20419;-78
2023/01/13 07:34:04;;;;;;;4.20;1.53;;;;;;;;;;5086440;28;20421;-79
2023/01/13 07:36:36;;;;;;;2.10;1.30;;;;;;;;;;5080296;28;20612;-78
2023/01/13 07:39:02;;;;;;;3.30;1.60;;;;;;;;;;5084584;28;20472;-78
2023/01/13 07:44:13;;;;;;;5.20;1.27;;;;;;;;;;5083226;28;20192;-76
2023/01/13 07:46:40;;;;;;;1.80;1.30;;;;;;;;;;5079890;28;20523;-77
2023/01/13 07:49:07;;;;;;;2.93;1.60;;;;;;;;;;5080050;28;21006;-77
2023/01/13 07:51:35;;;;;;;5.43;1.87;;;;;;;;;;5085375;28;20995;-77
2023/01/13 07:54:01;;;;;;;14.77;1.63;;;;;;;;;;5084494;28;20485;-78
2023/01/13 07:56:27;;;;;;;2.23;1.13;;;;;;;;;;5081254;28;20479;-78
2023/01/13 07:58:53;;;;;;;1.80;1.70;;;;;;;;;;5083666;28;20822;-77
2023/01/13 08:01:19;;;;;;;15.93;4.00;;;;;;;;;;5078275;28;20438;-78
2023/01/13 08:03:45;;;;;;;2.80;1.60;;;;;;;;;;5080033;28;20457;-78
2023/01/13 08:06:11;;;;;;;5.73;1.40;;;;;;;;;;5084540;28;20400;-78
2023/01/13 08:08:37;;;;;;;5.93;1.60;;;;;;;;;;5078688;28;20427;-78
2023/01/13 08:11:04;;;;;;;4.87;1.40;;;;;;;;;;5068218;28;20431;-78
2023/01/13 08:13:30;;;;;;;5.43;1.30;;;;;;;;;;5085620;28;20444;-78
2023/01/13 08:16:04;;;;;;;9.48;2.03;;;;;;;;;;4965889;28;3259313;-79
2023/01/13 08:18:31;;;;;;;4.20;1.17;;;;;;;;;;5086029;28;20715;-78
2023/01/13 08:21:00;;;;;;;4.17;0.90;;;;;;;;;;5092412;28;20501;-77
2023/01/13 08:23:26;;;;;;;4.00;1.50;;;;;;;;;;5079464;28;20440;-76
2023/01/13 08:25:52;;;;;;;6.60;1.80;;;;;;;;;;5077576;28;20422;-78
2023/01/13 08:28:18;;;;;;;4.23;1.83;;;;;;;;;;5089593;28;20715;-78
2023/01/13 08:30:44;;;;;;;2.70;1.53;;;;;;;;;;5086974;28;20424;-78
2023/01/13 08:33:11;;;;;;;4.53;1.10;;;;;;;;;;5092819;28;20964;-80
2023/01/13 08:35:38;;;;;;;3.13;1.03;;;;;;;;;;5087062;28;20453;-78
2023/01/13 08:38:04;;;;;;;3.17;0.97;;;;;;;;;;5081994;28;20460;-80
2023/01/13 08:40:30;;;;;;;3.83;1.30;;;;;;;;;;5085953;28;20462;-79
2023/01/13 08:42:57;;;;;;;3.30;1.03;;;;;;;;;;5086572;28;20424;-78
2023/01/13 08:45:23;;;;;;;3.57;1.60;;;;;;;;;;5082617;28;21049;-78
2023/01/13 08:47:49;;;;;;;2.57;1.10;;;;;;;;;;5088723;28;20495;-78
2023/01/13 08:50:15;;;;;;;13.43;2.10;;;;;;;;;;5077974;28;20974;-79
2023/01/13 08:52:41;;;;;;;1.90;0.90;;;;;;;;;;5081909;28;20460;-79
2023/01/13 08:55:08;;;;;;;6.17;1.20;;;;;;;;;;5086515;28;20431;-80
2023/01/13 08:57:34;;;;;;;2.17;1.50;;;;;;;;;;5094441;28;20453;-79
2023/01/13 09:00:00;;;;;;;0.90;0.90;;;;;;;;;;5085429;28;20471;-80
2023/01/13 09:02:26;;;;;;;8.90;2.30;;;;;;;;;;5080055;28;20424;-79
2023/01/13 09:04:52;;;;;;;2.10;1.50;;;;;;;;;;5076110;28;20452;-80
2023/01/13 09:07:18;;;;;;;6.23;1.40;;;;;;;;;;5082506;28;20428;-80
2023/01/13 09:09:44;;;;;;;5.80;1.30;;;;;;;;;;5080450;28;20558;-79
2023/01/13 09:14:56;;;;;;;2.33;1.00;;;;;;;;;;5078821;28;20582;-78
2023/01/13 09:17:22;;;;;;;5.93;1.30;;;;;;;;;;5089353;28;20596;-79
2023/01/13 09:19:48;;;;;;;3.73;1.70;;;;;;;;;;5085423;28;21017;-79
2023/01/13 09:22:15;;;;;;;7.10;1.70;;;;;;;;;;5093157;28;20574;-77
2023/01/13 09:24:41;;;;;;;12.17;2.57;;;;;;;;;;5088185;28;20479;-78
2023/01/13 09:27:08;;;;;;;7.70;2.80;;;;;;;;;;5085322;28;20449;-80
2023/01/13 09:29:34;;;;;;;1.33;1.03;;;;;;;;;;5092536;28;20435;-78
2023/01/13 09:32:00;;;;;;;6.07;2.10;;;;;;;;;;5079945;28;20787;-76
2023/01/13 09:37:10;;;;;;;6.07;2.10;;;;;;;;;;5075511;28;21178;-76
2023/01/13 09:39:38;;;;;;;3.70;1.47;;;;;;;;;;5091346;28;20565;-76
2023/01/13 09:45:12;;;;;;;10.73;2.70;;;;;;;;;;5059030;28;20442;-77
2023/01/13 09:47:44;;;;;;;10.57;2.37;;;;;;;;;;5071031;28;20855;-76
2023/01/13 09:50:13;;;;;;;5.27;1.10;;;;;;;;;;5090289;28;20435;-77
2023/01/13 09:52:41;;;;;;;8.30;2.37;;;;;;;;;;5097393;28;20758;-77
2023/01/13 09:55:14;;;;;;;3.60;2.20;;;;;;;;;;5079936;28;20819;-77
2023/01/13 09:57:40;;;;;;;4.17;2.33;;;;;;;;;;5079057;28;20592;-76
2023/01/13 10:00:32;;;;;;;6.73;2.03;;;;;;;;;;5079268;28;20493;-75
2023/01/13 10:03:17;;;;;;;6.87;2.97;;;;;;;;;;5061098;28;20538;-76
2023/01/13 10:05:55;;;;;;;8.27;2.03;;;;;;;;;;5081444;28;20445;-76
2023/01/13 10:08:47;;;;;;;4.47;2.10;;;;;;;;;;5073417;28;20430;-76
2023/01/13 10:14:23;;;;;;;7.47;2.20;;;;;;;;;;5079668;28;20446;-76
2023/01/13 10:16:52;;;;;;;3.70;2.30;;;;;;;;;;5074626;28;20420;-76
2023/01/13 10:19:22;;;;;;;5.10;2.00;;;;;;;;;;5078085;28;20475;-76
2023/01/13 10:21:51;;;;;;;3.50;1.40;;;;;;;;;;5087703;28;20452;-78
2023/01/13 10:24:22;;;;;;;4.83;2.07;;;;;;;;;;5083776;28;20504;-76
2023/01/13 10:26:51;;;;;;;1.60;0.97;;;;;;;;;;5073904;28;20424;-77
2023/01/13 10:29:19;;;;;;;6.27;1.77;;;;;;;;;;5090360;28;20436;-78
2023/01/13 10:31:45;;;;;;;6.83;2.50;;;;;;;;;;5087751;28;20432;-77
2023/01/13 10:34:11;;;;;;;9.70;2.87;;;;;;;;;;5102332;28;20514;-77
2023/01/13 10:36:37;;;;;;;9.33;2.30;;;;;;;;;;5092508;28;20728;-76
2023/01/13 10:39:08;;;;;;;11.53;2.43;;;;;;;;;;5090055;28;20507;-77
2023/01/13 10:41:35;;;;;;;8.23;4.60;;;;;;;;;;5078495;28;20515;-77
2023/01/13 10:44:03;;;;;;;2.20;1.60;;;;;;;;;;5074833;28;20523;-75
2023/01/13 10:46:30;;;;;;;6.10;2.77;;;;;;;;;;5079138;28;20773;-77
2023/01/13 10:49:03;;;;;;;5.80;2.37;;;;;;;;;;5082855;28;20424;-78
2023/01/13 10:51:29;;;;;;;11.13;2.07;;;;;;;;;;5092760;28;20533;-77
2023/01/13 10:53:55;;;;;;;11.50;2.47;;;;;;;;;;5088762;28;20923;-77
2023/01/13 10:56:22;;;;;;;4.63;2.70;;;;;;;;;;5089191;28;20423;-76
2023/01/13 10:58:48;;;;;;;2.37;2.10;;;;;;;;;;5075368;28;20499;-77
2023/01/13 11:01:20;;;;;;;7.90;2.83;;;;;;;;;;5072839;28;20429;-77
2023/01/13 11:03:47;;;;;;;1.57;1.50;;;;;;;;;;5078495;28;20496;-78
2023/01/13 11:06:26;;;;;;;6.77;2.13;;;;;;;;;;5077378;28;20823;-77
2023/01/13 11:08:54;;;;;;;10.80;2.50;;;;;;;;;;5087373;28;20431;-78
2023/01/13 11:11:40;;;;;;;7.13;2.30;;;;;;;;;;5089196;28;20412;-76
2023/01/13 11:17:23;;;;;;;15.30;3.00;;;;;;;;;;5085523;28;20457;-77
2023/01/13 11:19:56;;;;;;;12.77;2.10;;;;;;;;;;5092224;28;20463;-77
2023/01/13 11:22:33;;;;;;;11.23;2.43;;;;;;;;;;5090139;28;20451;-78
2023/01/13 11:25:01;;;;;;;9.00;3.27;;;;;;;;;;5078181;28;20765;-77
2023/01/13 11:27:44;;;;;;;10.20;3.33;;;;;;;;;;5077367;28;20432;-79
2023/01/13 11:30:10;;;;;;;9.00;2.90;;;;;;;;;;5080295;28;20448;-78
2023/01/13 11:32:43;;;;;;;7.93;2.47;;;;;;;;;;5091879;28;20959;-76
2023/01/13 11:35:15;;;;;;;10.67;2.80;;;;;;;;;;5076910;28;20440;-77
2023/01/13 11:37:43;;;;;;;3.33;1.73;;;;;;;;;;5083283;28;20460;-78
2023/01/13 11:40:42;;;;;;;10.97;2.83;;;;;;;;;;5078148;28;20460;-78
2023/01/13 11:43:08;;;;;;;14.07;3.60;;;;;;;;;;5056656;28;20527;-78
2023/01/13 11:45:37;;;;;;;21.23;3.17;;;;;;;;;;5076945;28;20547;-78
2023/01/13 11:48:03;;;;;;;8.77;2.20;;;;;;;;;;5086231;28;20503;-77
2023/01/13 11:50:35;;;;;;;6.03;2.43;;;;;;;;;;5084851;28;20429;-77
2023/01/13 11:53:20;;;;;;;9.73;2.93;;;;;;;;;;5087132;28;20436;-77
2023/01/13 11:55:46;;;;;;;5.90;1.90;;;;;;;;;;5080980;28;20415;-77
2023/01/13 11:58:12;;;;;;;5.10;2.53;;;;;;;;;;5090800;28;20541;-77
2023/01/13 12:00:55;;;;;;;4.50;1.40;;;;;;;;;;5080177;28;20550;-77
2023/01/13 12:03:27;;;;;;;4.53;1.90;;;;;;;;;;5084327;28;20915;-77
2023/01/13 12:05:58;;;;;;;7.00;2.27;;;;;;;;;;5077292;28;20416;-75
2023/01/13 12:08:35;;;;;;;9.07;2.40;;;;;;;;;;5083872;28;20481;-77
2023/01/13 12:11:09;;;;;;;7.13;2.27;;;;;;;;;;5066525;28;20448;-76
2023/01/13 12:13:53;;;;;;;6.00;2.30;;;;;;;;;;5082714;28;20408;-78
2023/01/13 12:16:24;;;;;;;5.50;2.43;;;;;;;;;;5076793;28;20373;-76
2023/01/13 12:18:50;;;;;;;7.63;2.33;;;;;;;;;;5076717;28;20556;-78
2023/01/13 12:21:23;;;;;;;7.87;2.57;;;;;;;;;;5088409;28;20583;-77
2023/01/13 12:24:05;;;;;;;10.20;2.80;;;;;;;;;;5100139;27;20441;-78
2023/01/13 12:26:39;;;;;;;8.50;2.90;;;;;;;;;;5087707;28;20447;-81
2023/01/13 12:29:17;;;;;;;14.47;2.20;;;;;;;;;;5081350;28;20423;-80
2023/01/13 12:31:44;;;;;;;8.93;1.37;;;;;;;;;;5079746;28;20951;-81
2023/01/13 12:34:14;;;;;;;2.70;1.80;;;;;;;;;;5088527;28;20428;-80
2023/01/13 12:36:49;;;;;;;7.53;1.37;;;;;;;;;;5101023;27;20904;-80
2023/01/13 12:39:15;;;;;;;4.60;2.30;;;;;;;;;;5087247;28;20517;-80
2023/01/13 12:44:29;;;;;;;2.97;1.10;;;;;;;;;;5073682;28;20507;-80
2023/01/13 12:46:56;;;;;;;3.63;2.20;;;;;;;;;;5080345;28;20436;-81
2023/01/13 12:49:23;;;;;;;7.33;2.30;;;;;;;;;;5073885;28;20424;-80
2023/01/13 12:51:55;;;;;;;3.17;2.03;;;;;;;;;;5081141;28;20919;-79
2023/01/13 12:54:36;;;;;;;2.23;2.00;;;;;;;;;;5080492;28;20440;-81
2023/01/13 12:57:18;;;;;;;2.13;1.57;;;;;;;;;;5071359;28;20955;-79
2023/01/13 12:59:59;;;;;;;2.20;1.47;;;;;;;;;;5084218;28;20802;-79
2023/01/13 13:02:29;;;;;;;5.90;2.30;;;;;;;;;;5079401;28;20446;-78
2023/01/13 13:04:56;;;;;;;2.23;1.23;;;;;;;;;;5073549;28;20448;-79
2023/01/13 13:07:43;;;;;;;2.77;1.90;;;;;;;;;;5077804;28;20468;-80
2023/01/13 13:10:23;;;;;;;1.60;1.50;;;;;;;;;;5073784;28;20986;-80
2023/01/13 13:15:37;;;;;;;7.60;2.40;;;;;;;;;;5082367;28;20471;-81
2023/01/13 13:18:16;;;;;;;9.23;2.60;;;;;;;;;;5080493;28;20946;-78
2023/01/13 13:20:52;;;;;;;5.70;2.10;;;;;;;;;;5080160;28;20808;-77
2023/01/13 13:23:46;;;;;;;3.70;1.80;;;;;;;;;;5105766;27;20450;-78
2023/01/13 13:26:23;;;;;;;9.13;2.43;;;;;;;;;;5072057;28;20412;-79
2023/01/13 13:29:01;;;;;;;4.87;2.00;;;;;;;;;;5082369;28;20449;-79
2023/01/13 13:31:42;;;;;;;1.40;1.40;;;;;;;;;;5076344;28;20794;-76
2023/01/13 13:34:14;;;;;;;1.30;1.20;;;;;;;;;;5071844;28;20550;-77
2023/01/13 13:36:40;;;;;;;8.50;3.00;;;;;;;;;;5078299;28;20482;-78
2023/01/13 13:47:39;;;;;;;5.50;1.60;;;;;;;;;;5078475;28;20975;-79
2023/01/13 13:50:08;;;;;;;5.97;2.20;;;;;;;;;;5080127;28;20661;-77
2023/01/13 13:52:40;;;;;;;7.70;2.23;;;;;;;;;;5070997;28;21248;-77
2023/01/13 13:55:17;;;;;;;5.30;2.10;;;;;;;;;;5081462;28;20648;-80
2023/01/13 13:57:45;;;;;;;6.03;2.17;;;;;;;;;;5082499;28;20439;-77
2023/01/13 14:00:14;;;;;;;9.30;1.70;;;;;;;;;;5073592;28;20459;-81
2023/01/13 14:02:46;;;;;;;2.67;1.60;;;;;;;;;;5080003;28;20435;-82
2023/01/13 14:05:18;;;;;;;9.40;2.87;;;;;;;;;;5078014;28;20485;-79
2023/01/13 14:07:45;;;;;;;14.27;2.50;;;;;;;;;;5085021;28;20789;-79
2023/01/13 14:10:16;;;;;;;4.17;2.93;;;;;;;;;;5078355;28;21180;-77
2023/01/13 14:12:42;;;;;;;6.50;2.10;;;;;;;;;;5093828;28;20515;-76
2023/01/13 14:15:27;;;;;;;7.03;1.93;;;;;;;;;;5073270;28;20468;-77
2023/01/13 14:17:53;;;;;;;10.57;2.53;;;;;;;;;;5086949;28;20428;-78
2023/01/13 14:20:19;;;;;;;6.37;2.33;;;;;;;;;;5085600;28;20658;-77
2023/01/13 14:22:49;;;;;;;3.43;2.37;;;;;;;;;;5082803;28;20467;-78
2023/01/13 14:25:29;;;;;;;7.67;2.80;;;;;;;;;;5079391;28;20538;-79
2023/01/13 14:27:56;;;;;;;6.27;1.80;;;;;;;;;;5080897;28;20436;-77
2023/01/13 14:30:24;;;;;;;14.17;3.00;;;;;;;;;;5081806;28;20591;-79
2023/01/13 14:32:50;;;;;;;10.80;3.00;;;;;;;;;;5088386;28;21110;-78
2023/01/13 14:35:17;;;;;;;11.40;4.47;;;;;;;;;;5072983;28;20440;-78
2023/01/13 14:37:44;;;;;;;11.73;3.30;;;;;;;;;;5094020;28;20435;-79
2023/01/13 14:40:29;;;;;;;14.33;3.33;;;;;;;;;;5101720;28;20467;-80
2023/01/13 14:43:03;;;;;;;9.43;2.17;;;;;;;;;;5085330;28;20424;-81
2023/01/13 14:45:32;;;;;;;12.20;2.97;;;;;;;;;;5092361;28;20468;-79
2023/01/13 14:47:59;;;;;;;9.40;3.00;;;;;;;;;;5088110;28;20788;-80
2023/01/13 14:50:30;;;;;;;6.93;2.30;;;;;;;;;;5094342;28;20840;-78
2023/01/13 14:52:57;;;;;;;16.80;4.50;;;;;;;;;;5079732;28;20501;-79
2023/01/13 14:55:25;;;;;;;8.70;2.17;;;;;;;;;;5089288;28;20486;-80
2023/01/13 14:57:51;;;;;;;5.10;1.60;;;;;;;;;;5094326;28;20917;-79
2023/01/13 15:00:22;;;;;;;11.13;2.27;;;;;;;;;;5087105;28;20471;-81
2023/01/13 15:02:57;;;;;;;10.27;2.15;;;;;;;;;;5084285;28;20551;-82
2023/01/13 15:05:23;;;;;;;25.77;5.63;;;;;;;;;;5087402;28;20729;-79
2023/01/13 15:07:55;;;;;;;5.53;2.53;;;;;;;;;;5090278;28;20467;-78
2023/01/13 15:10:23;;;;;;;15.27;3.80;;;;;;;;;;5078180;28;20935;-79
2023/01/13 15:12:50;;;;;;;12.87;6.00;;;;;;;;;;5091556;28;20444;-78
2023/01/13 15:15:19;;;;;;;7.53;2.50;;;;;;;;;;5093961;28;21118;-78
2023/01/13 15:17:48;;;;;;;7.43;2.77;;;;;;;;;;5090831;28;20448;-80
2023/01/13 15:20:15;;;;;;;2.77;2.60;;;;;;;;;;5086140;28;20486;-78
2023/01/13 15:22:41;;;;;;;5.53;2.00;;;;;;;;;;5090461;28;20779;-79
2023/01/13 15:25:08;;;;;;;18.17;3.60;;;;;;;;;;5089547;28;20451;-79
2023/01/13 15:27:34;;;;;;;15.03;2.80;;;;;;;;;;5082404;28;20427;-79
2023/01/13 15:30:03;;;;;;;8.60;3.10;;;;;;;;;;5074697;28;20980;-79
2023/01/13 15:32:32;;;;;;;9.77;2.27;;;;;;;;;;5084857;28;20981;-78
2023/01/13 15:34:58;;;;;;;4.13;2.07;;;;;;;;;;5087651;28;20448;-78
2023/01/13 15:37:24;;;;;;;8.33;2.70;;;;;;;;;;5084535;28;20508;-79
2023/01/13 15:39:50;;;;;;;7.90;3.00;;;;;;;;;;5093941;28;20467;-79
2023/01/13 15:47:47;;;;;;;6.37;3.70;;;;;;;;;;5079555;28;20759;-79
2023/01/13 15:50:14;;;;;;;8.97;2.57;;;;;;;;;;5074320;28;20449;-79
2023/01/13 15:52:40;;;;;;;11.90;3.83;;;;;;;;;;5092865;28;20450;-79
2023/01/13 15:55:10;;;;;;;4.07;2.80;;;;;;;;;;5079606;28;20448;-79
2023/01/13 15:57:37;;;;;;;5.33;2.10;;;;;;;;;;5099881;27;20475;-80
2023/01/13 16:00:06;;;;;;;6.40;2.93;;;;;;;;;;5090728;28;20463;-81
2023/01/13 16:02:32;;;;;;;7.83;3.93;;;;;;;;;;5084110;28;20463;-78
2023/01/13 16:04:58;;;;;;;4.53;3.20;;;;;;;;;;5086633;28;20424;-79
2023/01/13 16:07:25;;;;;;;14.40;2.93;;;;;;;;;;5098744;28;20441;-78